sensor_id;sensor_type;location;lat;lon;timestamp;pressure;altitude;pressure_sealevel;temperature;humidity
50057;BME280;36875;49.468;11.200;2023-12-14T00:00:48;96733.25;;;22.49;37.00
50057;BME280;36875;49.468;11.200;2023-12-14T00:03:13;96738.22;;;22.43;37.02
50057;BME280;36875;49.468;11.200;2023-12-14T00:05:39;96740.94;;;22.43;37.08
50057;BME280;36875;49.468;11.200;2023-12-14T00:08:05;96748.28;;;22.39;37.22
50057;BME280;36875;49.468;11.200;2023-12-14T00:10:30;96752.53;;;22.37;37.19
50057;BME280;36875;49.468;11.200;2023-12-14T00:12:57;96748.28;;;22.39;37.03
50057;BME280;36875;49.468;11.200;2023-12-14T00:15:24;96754.47;;;22.36;36.92
50057;BME280;36875;49.468;11.200;2023-12-14T00:17:49;96756.59;;;22.27;37.27
50057;BME280;36875;49.468;11.200;2023-12-14T00:20:15;96755.47;;;22.28;37.19
50057;BME280;36875;49.468;11.200;2023-12-14T00:22:41;96759.66;;;22.25;37.17
50057;BME280;36875;49.468;11.200;2023-12-14T00:25:07;96756.94;;;22.25;37.10
50057;BME280;36875;49.468;11.200;2023-12-14T00:27:32;96761.88;;;22.20;36.96
50057;BME280;36875;49.468;11.200;2023-12-14T00:29:58;96742.72;;;22.04;37.35
50057;BME280;36875;49.468;11.200;2023-12-14T00:32:24;96769.22;;;22.16;37.28
50057;BME280;36875;49.468;11.200;2023-12-14T00:34:50;96777.34;;;22.12;37.54
50057;BME280;36875;49.468;11.200;2023-12-14T00:37:15;96777.94;;;22.05;37.43
50057;BME280;36875;49.468;11.200;2023-12-14T00:42:09;96780.78;;;22.09;37.35
50057;BME280;36875;49.468;11.200;2023-12-14T00:44:35;96785.38;;;22.05;37.64
50057;BME280;36875;49.468;11.200;2023-12-14T00:47:00;96795.09;;;22.02;37.37
50057;BME280;36875;49.468;11.200;2023-12-14T00:49:29;96791.94;;;22.00;37.38
50057;BME280;36875;49.468;11.200;2023-12-14T00:51:54;96798.88;;;21.98;37.46
50057;BME280;36875;49.468;11.200;2023-12-14T00:54:20;96796.50;;;21.96;37.52
50057;BME280;36875;49.468;11.200;2023-12-14T00:56:45;96801.19;;;21.95;37.42
50057;BME280;36875;49.468;11.200;2023-12-14T00:59:11;96809.56;;;21.87;37.54
50057;BME280;36875;49.468;11.200;2023-12-14T01:01:36;96813.09;;;21.87;37.54
50057;BME280;36875;49.468;11.200;2023-12-14T01:04:02;96815.75;;;21.84;37.69
50057;BME280;36875;49.468;11.200;2023-12-14T01:06:29;96825.88;;;21.83;37.58
50057;BME280;36875;49.468;11.200;2023-12-14T01:08:54;96821.13;;;21.80;37.59
50057;BME280;36875;49.468;11.200;2023-12-14T01:11:20;96825.00;;;21.79;37.72
50057;BME280;36875;49.468;11.200;2023-12-14T01:13:45;96833.56;;;21.78;37.61
50057;BME280;36875;49.468;11.200;2023-12-14T01:16:10;96841.00;;;21.77;37.66
50057;BME280;36875;49.468;11.200;2023-12-14T01:18:36;96839.03;;;21.78;37.64
50057;BME280;36875;49.468;11.200;2023-12-14T01:21:02;96846.72;;;21.72;37.85
50057;BME280;36875;49.468;11.200;2023-12-14T01:23:29;96843.53;;;21.70;37.83
50057;BME280;36875;49.468;11.200;2023-12-14T01:25:54;96848.91;;;21.66;37.78
50057;BME280;36875;49.468;11.200;2023-12-14T01:28:20;96855.06;;;21.63;37.89
50057;BME280;36875;49.468;11.200;2023-12-14T01:30:45;96857.00;;;21.63;37.82
50057;BME280;36875;49.468;11.200;2023-12-14T01:33:11;96843.81;;;21.52;37.63
50057;BME280;36875;49.468;11.200;2023-12-14T01:35:36;96861.94;;;21.57;37.88
50057;BME280;36875;49.468;11.200;2023-12-14T01:38:02;96865.84;;;21.56;37.92
50057;BME280;36875;49.468;11.200;2023-12-14T01:40:28;96862.63;;;21.54;37.92
50057;BME280;36875;49.468;11.200;2023-12-14T01:43:06;96866.41;;;21.49;38.03
50057;BME280;36875;49.468;11.200;2023-12-14T01:45:31;96852.38;;;21.38;37.88
50057;BME280;36875;49.468;11.200;2023-12-14T01:47:57;96874.16;;;21.47;37.89
50057;BME280;36875;49.468;11.200;2023-12-14T01:50:22;96880.00;;;21.46;38.02
50057;BME280;36875;49.468;11.200;2023-12-14T01:52:47;96880.63;;;21.43;38.01
50057;BME280;36875;49.468;11.200;2023-12-14T01:55:13;96880.88;;;21.37;38.04
50057;BME280;36875;49.468;11.200;2023-12-14T01:57:40;96881.69;;;21.38;37.92
50057;BME280;36875;49.468;11.200;2023-12-14T02:00:07;96888.63;;;21.35;38.09
50057;BME280;36875;49.468;11.200;2023-12-14T02:02:34;96893.75;;;21.37;38.11
50057;BME280;36875;49.468;11.200;2023-12-14T02:05:03;96881.56;;;21.34;37.92
50057;BME280;36875;49.468;11.200;2023-12-14T02:07:29;96903.69;;;21.29;38.00
50057;BME280;36875;49.468;11.200;2023-12-14T02:09:54;96893.88;;;21.28;38.18
50057;BME280;36875;49.468;11.200;2023-12-14T02:12:20;96899.34;;;21.28;38.25
50057;BME280;36875;49.468;11.200;2023-12-14T02:14:48;96906.66;;;21.24;38.20
50057;BME280;36875;49.468;11.200;2023-12-14T02:17:13;96906.22;;;21.22;38.14
50057;BME280;36875;49.468;11.200;2023-12-14T02:19:39;96905.31;;;21.18;38.37
50057;BME280;36875;49.468;11.200;2023-12-14T02:22:04;96907.72;;;21.20;38.27
50057;BME280;36875;49.468;11.200;2023-12-14T02:24:31;96912.63;;;21.14;38.33
50057;BME280;36875;49.468;11.200;2023-12-14T02:26:57;96920.47;;;21.15;38.30
50057;BME280;36875;49.468;11.200;2023-12-14T02:29:23;96923.19;;;21.15;38.08
50057;BME280;36875;49.468;11.200;2023-12-14T02:31:48;96918.31;;;21.09;38.30
50057;BME280;36875;49.468;11.200;2023-12-14T02:34:14;96926.53;;;21.09;38.24
50057;BME280;36875;49.468;11.200;2023-12-14T02:36:39;96916.84;;;20.99;38.49
50057;BME280;36875;49.468;11.200;2023-12-14T02:39:05;96927.41;;;21.01;38.48
50057;BME280;36875;49.468;11.200;2023-12-14T02:41:32;96924.34;;;21.02;38.47
50057;BME280;36875;49.468;11.200;2023-12-14T02:43:57;96932.88;;;21.01;38.47
50057;BME280;36875;49.468;11.200;2023-12-14T02:46:23;96934.38;;;20.98;38.49
50057;BME280;36875;49.468;11.200;2023-12-14T02:48:48;96936.78;;;20.99;38.31
50057;BME280;36875;49.468;11.200;2023-12-14T02:51:14;96940.97;;;20.97;38.28
50057;BME280;36875;49.468;11.200;2023-12-14T02:53:40;96938.94;;;20.94;38.27
50057;BME280;36875;49.468;11.200;2023-12-14T02:56:06;96947.16;;;20.94;38.38
50057;BME280;36875;49.468;11.200;2023-12-14T02:58:33;96961.81;;;20.89;38.53
50057;BME280;36875;49.468;11.200;2023-12-14T03:00:58;96952.72;;;20.85;38.45
50057;BME280;36875;49.468;11.200;2023-12-14T03:03:24;96961.38;;;20.87;38.54
50057;BME280;36875;49.468;11.200;2023-12-14T03:05:49;96962.16;;;20.88;38.51
50057;BME280;36875;49.468;11.200;2023-12-14T03:08:15;96969.13;;;20.85;38.54
50057;BME280;36875;49.468;11.200;2023-12-14T03:10:40;96962.03;;;20.84;38.79
50057;BME280;36875;49.468;11.200;2023-12-14T03:13:06;96964.19;;;20.78;38.34
50057;BME280;36875;49.468;11.200;2023-12-14T03:15:33;96976.28;;;20.77;38.68
50057;BME280;36875;49.468;11.200;2023-12-14T03:17:58;96984.50;;;20.77;38.61
50057;BME280;36875;49.468;11.200;2023-12-14T03:20:24;96986.78;;;20.75;38.43
50057;BME280;36875;49.468;11.200;2023-12-14T03:22:49;96989.84;;;20.74;38.65
50057;BME280;36875;49.468;11.200;2023-12-14T03:25:15;96990.50;;;20.71;38.64
50057;BME280;36875;49.468;11.200;2023-12-14T03:27:40;96988.91;;;20.70;38.72
50057;BME280;36875;49.468;11.200;2023-12-14T03:30:07;97003.38;;;20.70;38.77
50057;BME280;36875;49.468;11.200;2023-12-14T03:32:36;97008.38;;;20.68;38.72
50057;BME280;36875;49.468;11.200;2023-12-14T03:35:03;97001.66;;;20.66;38.69
50057;BME280;36875;49.468;11.200;2023-12-14T03:37:28;97012.94;;;20.64;38.64
50057;BME280;36875;49.468;11.200;2023-12-14T03:39:54;97006.50;;;20.60;38.88
50057;BME280;36875;49.468;11.200;2023-12-14T03:42:20;97011.97;;;20.60;39.00
50057;BME280;36875;49.468;11.200;2023-12-14T03:44:46;97004.00;;;20.55;38.73
50057;BME280;36875;49.468;11.200;2023-12-14T03:47:12;97019.72;;;20.58;38.72
50057;BME280;36875;49.468;11.200;2023-12-14T03:49:38;97021.19;;;20.55;38.66
50057;BME280;36875;49.468;11.200;2023-12-14T03:52:04;97030.50;;;20.54;38.97
50057;BME280;36875;49.468;11.200;2023-12-14T03:54:30;97037.13;;;20.53;38.80
50057;BME280;36875;49.468;11.200;2023-12-14T03:56:55;97035.06;;;20.50;38.86
50057;BME280;36875;49.468;11.200;2023-12-14T03:59:21;97043.59;;;20.49;38.99
50057;BME280;36875;49.468;11.200;2023-12-14T04:01:46;97044.38;;;20.49;38.85
50057;BME280;36875;49.468;11.200;2023-12-14T04:04:12;97052.13;;;20.47;38.84
50057;BME280;36875;49.468;11.200;2023-12-14T04:06:38;97061.47;;;20.46;38.96
50057;BME280;36875;49.468;11.200;2023-12-14T04:09:04;97062.13;;;20.43;38.92
50057;BME280;36875;49.468;11.200;2023-12-14T04:11:30;97066.81;;;20.42;38.94
50057;BME280;36875;49.468;11.200;2023-12-14T04:13:55;97065.19;;;20.41;38.88
50057;BME280;36875;49.468;11.200;2023-12-14T04:16:21;97067.47;;;20.39;38.93
50057;BME280;36875;49.468;11.200;2023-12-14T04:18:47;97074.06;;;20.38;38.85
50057;BME280;36875;49.468;11.200;2023-12-14T04:21:12;97074.41;;;20.37;38.81
50057;BME280;36875;49.468;11.200;2023-12-14T04:23:39;97082.13;;;20.35;38.83
50057;BME280;36875;49.468;11.200;2023-12-14T04:26:05;97091.78;;;20.32;38.87
50057;BME280;36875;49.468;11.200;2023-12-14T04:28:30;97089.06;;;20.32;38.80
50057;BME280;36875;49.468;11.200;2023-12-14T04:30:56;97092.09;;;20.31;38.93
50057;BME280;36875;49.468;11.200;2023-12-14T04:33:21;97098.41;;;20.31;38.94
50057;BME280;36875;49.468;11.200;2023-12-14T04:35:47;97103.72;;;20.28;38.78
50057;BME280;36875;49.468;11.200;2023-12-14T04:38:12;97101.19;;;20.22;39.04
50057;BME280;36875;49.468;11.200;2023-12-14T04:40:39;97102.75;;;20.23;39.11
50057;BME280;36875;49.468;11.200;2023-12-14T04:43:04;97106.00;;;20.26;39.17
50057;BME280;36875;49.468;11.200;2023-12-14T04:45:30;97100.25;;;20.18;38.90
50057;BME280;36875;49.468;11.200;2023-12-14T04:47:55;97119.84;;;20.20;38.88
50057;BME280;36875;49.468;11.200;2023-12-14T04:50:21;97123.69;;;20.19;38.98
50057;BME280;36875;49.468;11.200;2023-12-14T04:52:46;97125.03;;;20.13;38.98
50057;BME280;36875;49.468;11.200;2023-12-14T04:55:12;97129.34;;;20.14;38.97
50057;BME280;36875;49.468;11.200;2023-12-14T04:57:39;97135.94;;;20.13;39.09
50057;BME280;36875;49.468;11.200;2023-12-14T05:00:05;97138.69;;;20.13;38.92
50057;BME280;36875;49.468;11.200;2023-12-14T05:02:31;97130.34;;;20.10;39.25
50057;BME280;36875;49.468;11.200;2023-12-14T05:04:57;97137.06;;;20.12;38.91
50057;BME280;36875;49.468;11.200;2023-12-14T05:07:22;97140.47;;;20.09;39.13
50057;BME280;36875;49.468;11.200;2023-12-14T05:09:49;97150.94;;;20.07;39.08
50057;BME280;36875;49.468;11.200;2023-12-14T05:12:14;97150.44;;;20.05;39.11
50057;BME280;36875;49.468;11.200;2023-12-14T05:14:41;97139.72;;;20.00;39.14
50057;BME280;36875;49.468;11.200;2023-12-14T05:17:07;97161.72;;;20.03;39.00
50057;BME280;36875;49.468;11.200;2023-12-14T05:19:32;97160.44;;;20.01;38.89
50057;BME280;36875;49.468;11.200;2023-12-14T05:21:59;97153.25;;;19.96;39.27
50057;BME280;36875;49.468;11.200;2023-12-14T05:24:24;97172.50;;;20.00;39.30
50057;BME280;36875;49.468;11.200;2023-12-14T05:26:50;97173.63;;;19.99;39.05
50057;BME280;36875;49.468;11.200;2023-12-14T05:29:16;97168.34;;;19.94;39.10
50057;BME280;36875;49.468;11.200;2023-12-14T05:31:43;97177.34;;;19.94;39.32
50057;BME280;36875;49.468;11.200;2023-12-14T05:34:09;97188.28;;;19.94;39.03
50057;BME280;36875;49.468;11.200;2023-12-14T05:36:34;97194.84;;;19.93;39.10
50057;BME280;36875;49.468;11.200;2023-12-14T05:39:00;97192.13;;;19.93;39.53
50057;BME280;36875;49.468;11.200;2023-12-14T05:41:26;97190.84;;;19.91;39.43
50057;BME280;36875;49.468;11.200;2023-12-14T05:43:51;97202.91;;;19.90;39.37
50057;BME280;36875;49.468;11.200;2023-12-14T05:46:21;97199.69;;;19.88;39.21
50057;BME280;36875;49.468;11.200;2023-12-14T05:48:47;97207.09;;;19.87;39.33
50057;BME280;36875;49.468;11.200;2023-12-14T05:51:25;97212.88;;;19.86;39.51
50057;BME280;36875;49.468;11.200;2023-12-14T05:53:51;97213.19;;;19.84;39.36
50057;BME280;36875;49.468;11.200;2023-12-14T05:56:17;97220.59;;;19.83;39.38
50057;BME280;36875;49.468;11.200;2023-12-14T05:58:43;97227.50;;;19.81;39.41
50057;BME280;36875;49.468;11.200;2023-12-14T06:01:08;97230.53;;;19.79;39.29
50057;BME280;36875;49.468;11.200;2023-12-14T06:03:34;97236.00;;;19.79;39.46
50057;BME280;36875;49.468;11.200;2023-12-14T06:06:01;97244.19;;;19.79;39.28
50057;BME280;36875;49.468;11.200;2023-12-14T06:08:26;97244.88;;;19.76;39.94
50057;BME280;36875;49.468;11.200;2023-12-14T06:10:52;97243.25;;;19.75;39.70
50057;BME280;36875;49.468;11.200;2023-12-14T06:13:17;97245.97;;;19.75;39.75
50057;BME280;36875;49.468;11.200;2023-12-14T06:15:43;97252.25;;;19.76;40.42
50057;BME280;36875;49.468;11.200;2023-12-14T06:18:08;97256.91;;;19.75;40.29
50057;BME280;36875;49.468;11.200;2023-12-14T06:20:33;97261.56;;;19.75;40.41
50057;BME280;36875;49.468;11.200;2023-12-14T06:23:00;97267.34;;;19.73;40.47
50057;BME280;36875;49.468;11.200;2023-12-14T06:25:26;97272.50;;;19.75;40.93
50057;BME280;36875;49.468;11.200;2023-12-14T06:27:51;97273.28;;;19.75;40.86
50057;BME280;36875;49.468;11.200;2023-12-14T06:30:17;97266.69;;;19.68;40.89
50057;BME280;36875;49.468;11.200;2023-12-14T06:32:42;97279.38;;;19.72;41.31
50057;BME280;36875;49.468;11.200;2023-12-14T06:35:08;97287.06;;;19.70;40.87
50057;BME280;36875;49.468;11.200;2023-12-14T06:37:33;97281.28;;;19.72;41.84
50057;BME280;36875;49.468;11.200;2023-12-14T06:40:00;97285.66;;;19.73;41.83
50057;BME280;36875;49.468;11.200;2023-12-14T06:42:26;97283.22;;;19.71;41.83
50057;BME280;36875;49.468;11.200;2023-12-14T06:44:53;97290.63;;;19.71;41.75
50057;BME280;36875;49.468;11.200;2023-12-14T06:47:18;97298.31;;;19.77;41.68
50057;BME280;36875;49.468;11.200;2023-12-14T06:49:44;97296.38;;;19.87;41.73
50057;BME280;36875;49.468;11.200;2023-12-14T06:52:09;97304.06;;;20.02;41.65
50057;BME280;36875;49.468;11.200;2023-12-14T06:54:35;97309.16;;;20.12;41.21
50057;BME280;36875;49.468;11.200;2023-12-14T06:57:02;97316.38;;;20.17;41.59
50057;BME280;36875;49.468;11.200;2023-12-14T06:59:28;97324.56;;;20.26;41.90
50057;BME280;36875;49.468;11.200;2023-12-14T07:01:53;97334.63;;;20.42;41.53
50057;BME280;36875;49.468;11.200;2023-12-14T07:04:19;97334.09;;;20.49;41.31
50057;BME280;36875;49.468;11.200;2023-12-14T07:06:50;97336.03;;;20.49;41.23
50057;BME280;36875;49.468;11.200;2023-12-14T07:09:15;97354.31;;;20.66;41.15
50057;BME280;36875;49.468;11.200;2023-12-14T07:11:41;97353.66;;;20.69;40.97
50057;BME280;36875;49.468;11.200;2023-12-14T07:14:08;97370.56;;;20.62;40.76
50057;BME280;36875;49.468;11.200;2023-12-14T07:16:33;97364.09;;;20.75;40.56
50057;BME280;36875;49.468;11.200;2023-12-14T07:18:59;97369.84;;;20.83;40.70
50057;BME280;36875;49.468;11.200;2023-12-14T07:21:25;97369.31;;;20.89;40.63
50057;BME280;36875;49.468;11.200;2023-12-14T07:23:50;97378.56;;;21.06;40.26
50057;BME280;36875;49.468;11.200;2023-12-14T07:26:16;97380.88;;;20.95;40.55
50057;BME280;36875;49.468;11.200;2023-12-14T07:28:41;97387.09;;;21.04;40.15
50057;BME280;36875;49.468;11.200;2023-12-14T07:31:08;97386.78;;;21.06;40.41
50057;BME280;36875;49.468;11.200;2023-12-14T07:33:33;97397.53;;;21.11;40.30
50057;BME280;36875;49.468;11.200;2023-12-14T07:36:00;97395.44;;;21.08;40.12
50057;BME280;36875;49.468;11.200;2023-12-14T07:38:26;97402.34;;;21.14;40.65
50057;BME280;36875;49.468;11.200;2023-12-14T07:40:51;97408.72;;;21.27;39.93
50057;BME280;36875;49.468;11.200;2023-12-14T07:43:17;97405.44;;;21.33;39.75
50057;BME280;36875;49.468;11.200;2023-12-14T07:45:43;97419.50;;;21.53;39.44
50057;BME280;36875;49.468;11.200;2023-12-14T07:48:10;97411.59;;;21.72;39.06
50057;BME280;36875;49.468;11.200;2023-12-14T07:50:36;97421.31;;;21.91;38.54
50057;BME280;36875;49.468;11.200;2023-12-14T07:53:01;97431.09;;;22.13;38.12
50057;BME280;36875;49.468;11.200;2023-12-14T07:55:28;97423.84;;;22.29;37.61
50057;BME280;36875;49.468;11.200;2023-12-14T07:57:54;97430.66;;;22.44;37.61
50057;BME280;36875;49.468;11.200;2023-12-14T08:00:20;97435.81;;;22.58;37.62
50057;BME280;36875;49.468;11.200;2023-12-14T08:02:45;97435.56;;;22.51;37.70
50057;BME280;36875;49.468;11.200;2023-12-14T08:05:12;97436.44;;;22.76;37.27
50057;BME280;36875;49.468;11.200;2023-12-14T08:07:38;97436.69;;;23.08;36.73
50057;BME280;36875;49.468;11.200;2023-12-14T08:12:29;97452.94;;;23.13;36.88
50057;BME280;36875;49.468;11.200;2023-12-14T08:14:55;97439.56;;;23.24;36.72
50057;BME280;36875;49.468;11.200;2023-12-14T08:17:20;97456.72;;;23.45;36.29
50057;BME280;36875;49.468;11.200;2023-12-14T08:19:46;97459.91;;;23.47;36.34
50057;BME280;36875;49.468;11.200;2023-12-14T08:22:13;97462.66;;;23.47;36.39
50057;BME280;36875;49.468;11.200;2023-12-14T08:24:40;97475.44;;;23.56;35.89
50057;BME280;36875;49.468;11.200;2023-12-14T08:27:06;97475.22;;;23.48;36.37
50057;BME280;36875;49.468;11.200;2023-12-14T08:29:31;97467.50;;;23.91;35.46
50057;BME280;36875;49.468;11.200;2023-12-14T08:31:57;97483.97;;;24.03;35.50
50057;BME280;36875;49.468;11.200;2023-12-14T08:34:24;97484.31;;;24.02;35.63
50057;BME280;36875;49.468;11.200;2023-12-14T08:36:50;97482.97;;;24.24;35.23
50057;BME280;36875;49.468;11.200;2023-12-14T08:39:17;97480.03;;;24.45;34.85
50057;BME280;36875;49.468;11.200;2023-12-14T08:41:43;97487.56;;;24.76;34.20
50057;BME280;36875;49.468;11.200;2023-12-14T08:44:10;97494.84;;;24.69;35.03
50057;BME280;36875;49.468;11.200;2023-12-14T08:46:39;97500.81;;;24.87;34.45
50057;BME280;36875;49.468;11.200;2023-12-14T08:49:04;97501.34;;;25.08;33.93
50057;BME280;36875;49.468;11.200;2023-12-14T08:51:30;97507.44;;;25.46;33.55
50057;BME280;36875;49.468;11.200;2023-12-14T08:53:55;97514.41;;;25.59;33.06
50057;BME280;36875;49.468;11.200;2023-12-14T08:56:22;97514.06;;;25.61;33.23
50057;BME280;36875;49.468;11.200;2023-12-14T08:58:47;97518.66;;;25.72;33.53
50057;BME280;36875;49.468;11.200;2023-12-14T09:01:19;97512.78;;;25.74;33.46
50057;BME280;36875;49.468;11.200;2023-12-14T09:03:45;97513.13;;;25.88;32.69
50057;BME280;36875;49.468;11.200;2023-12-14T09:06:10;97523.84;;;25.58;33.80
50057;BME280;36875;49.468;11.200;2023-12-14T09:08:36;97533.56;;;26.03;33.19
50057;BME280;36875;49.468;11.200;2023-12-14T09:11:01;97544.34;;;25.92;32.55
50057;BME280;36875;49.468;11.200;2023-12-14T09:13:29;97549.31;;;26.22;32.50
50057;BME280;36875;49.468;11.200;2023-12-14T09:15:54;97548.31;;;25.95;32.32
50057;BME280;36875;49.468;11.200;2023-12-14T09:18:20;97555.94;;;26.18;32.34
50057;BME280;36875;49.468;11.200;2023-12-14T09:20:47;97562.44;;;26.09;32.74
50057;BME280;36875;49.468;11.200;2023-12-14T09:23:14;97564.44;;;25.77;32.94
50057;BME280;36875;49.468;11.200;2023-12-14T09:25:40;97563.97;;;26.07;33.09
50057;BME280;36875;49.468;11.200;2023-12-14T09:28:05;97577.47;;;26.12;32.39
50057;BME280;36875;49.468;11.200;2023-12-14T09:30:32;97581.66;;;26.06;32.95
50057;BME280;36875;49.468;11.200;2023-12-14T09:32:58;97583.81;;;25.96;32.98
50057;BME280;36875;49.468;11.200;2023-12-14T09:35:23;97582.31;;;25.99;33.00
50057;BME280;36875;49.468;11.200;2023-12-14T09:37:49;97581.38;;;26.11;32.75
50057;BME280;36875;49.468;11.200;2023-12-14T09:40:15;97586.66;;;26.00;32.92
50057;BME280;36875;49.468;11.200;2023-12-14T09:42:42;97590.06;;;25.93;33.25
50057;BME280;36875;49.468;11.200;2023-12-14T09:45:08;97588.34;;;25.89;33.20
50057;BME280;36875;49.468;11.200;2023-12-14T09:47:36;97594.56;;;26.02;32.65
50057;BME280;36875;49.468;11.200;2023-12-14T09:50:02;97603.34;;;25.91;33.03
50057;BME280;36875;49.468;11.200;2023-12-14T09:52:28;97600.88;;;25.86;32.85
50057;BME280;36875;49.468;11.200;2023-12-14T09:54:54;97589.69;;;25.63;33.44
50057;BME280;36875;49.468;11.200;2023-12-14T09:57:19;97610.25;;;25.50;33.48
50057;BME280;36875;49.468;11.200;2023-12-14T09:59:51;97612.28;;;25.69;33.01
50057;BME280;36875;49.468;11.200;2023-12-14T10:02:16;97612.53;;;25.64;33.38
50057;BME280;36875;49.468;11.200;2023-12-14T10:04:44;97618.41;;;25.78;32.77
50057;BME280;36875;49.468;11.200;2023-12-14T10:07:09;97619.41;;;25.70;32.79
50057;BME280;36875;49.468;11.200;2023-12-14T10:09:36;97627.94;;;25.65;33.11
50057;BME280;36875;49.468;11.200;2023-12-14T10:12:03;97626.41;;;25.83;32.85
50057;BME280;36875;49.468;11.200;2023-12-14T10:14:30;97624.44;;;25.84;32.74
50057;BME280;36875;49.468;11.200;2023-12-14T10:16:56;97623.19;;;25.49;33.32
50057;BME280;36875;49.468;11.200;2023-12-14T10:19:22;97635.75;;;25.63;33.39
50057;BME280;36875;49.468;11.200;2023-12-14T10:21:50;97642.56;;;25.53;33.53
50057;BME280;36875;49.468;11.200;2023-12-14T10:24:16;97634.06;;;25.74;33.57
50057;BME280;36875;49.468;11.200;2023-12-14T10:26:44;97625.59;;;25.67;33.43
50057;BME280;36875;49.468;11.200;2023-12-14T10:29:10;97628.28;;;25.79;33.62
50057;BME280;36875;49.468;11.200;2023-12-14T10:31:36;97625.34;;;25.56;33.63
50057;BME280;36875;49.468;11.200;2023-12-14T10:34:02;97630.41;;;25.70;33.75
50057;BME280;36875;49.468;11.200;2023-12-14T10:36:28;97636.91;;;25.62;33.76
50057;BME280;36875;49.468;11.200;2023-12-14T10:38:57;97635.28;;;25.76;32.96
50057;BME280;36875;49.468;11.200;2023-12-14T10:41:23;97633.88;;;25.51;33.49
50057;BME280;36875;49.468;11.200;2023-12-14T10:43:51;97643.13;;;25.58;33.63
50057;BME280;36875;49.468;11.200;2023-12-14T10:46:19;97643.47;;;25.41;33.81
50057;BME280;36875;49.468;11.200;2023-12-14T10:48:47;97647.63;;;25.35;34.28
50057;BME280;36875;49.468;11.200;2023-12-14T10:51:13;97650.31;;;25.47;34.07
50057;BME280;36875;49.468;11.200;2023-12-14T10:53:40;97653.34;;;25.42;33.77
50057;BME280;36875;49.468;11.200;2023-12-14T10:56:13;97658.38;;;25.40;34.33
50057;BME280;36875;49.468;11.200;2023-12-14T10:58:46;97653.88;;;25.19;34.73
50057;BME280;36875;49.468;11.200;2023-12-14T11:01:13;97665.00;;;24.95;35.17
50057;BME280;36875;49.468;11.200;2023-12-14T11:03:40;97666.16;;;24.94;34.67
50057;BME280;36875;49.468;11.200;2023-12-14T11:06:20;97668.91;;;24.94;34.99
50057;BME280;36875;49.468;11.200;2023-12-14T11:08:45;97666.16;;;24.94;34.84
50057;BME280;36875;49.468;11.200;2023-12-14T11:11:12;97673.13;;;25.04;34.36
50057;BME280;36875;49.468;11.200;2023-12-14T11:13:41;97669.25;;;24.92;34.78
50057;BME280;36875;49.468;11.200;2023-12-14T11:16:07;97680.06;;;25.13;34.71
50057;BME280;36875;49.468;11.200;2023-12-14T11:18:33;97677.97;;;24.94;34.59
50057;BME280;36875;49.468;11.200;2023-12-14T11:21:01;97673.50;;;24.90;35.05
50057;BME280;36875;49.468;11.200;2023-12-14T11:23:31;97689.78;;;24.95;35.10
50057;BME280;36875;49.468;11.200;2023-12-14T11:26:00;97688.78;;;25.15;34.71
50057;BME280;36875;49.468;11.200;2023-12-14T11:28:30;97698.50;;;25.25;34.26
50057;BME280;36875;49.468;11.200;2023-12-14T11:30:55;97698.78;;;25.08;34.68
50057;BME280;36875;49.468;11.200;2023-12-14T11:33:21;97701.19;;;25.09;34.74
50057;BME280;36875;49.468;11.200;2023-12-14T11:35:47;97704.88;;;25.01;35.02
50057;BME280;36875;49.468;11.200;2023-12-14T11:38:13;97704.41;;;25.11;34.99
50057;BME280;36875;49.468;11.200;2023-12-14T11:40:38;97709.53;;;25.25;34.38
50057;BME280;36875;49.468;11.200;2023-12-14T11:43:04;97708.13;;;25.31;34.65
50057;BME280;36875;49.468;11.200;2023-12-14T11:45:34;97706.91;;;25.45;34.33
50057;BME280;36875;49.468;11.200;2023-12-14T11:48:01;97709.38;;;25.34;34.38
50057;BME280;36875;49.468;11.200;2023-12-14T11:50:30;97716.50;;;25.51;34.58
50057;BME280;36875;49.468;11.200;2023-12-14T11:52:55;97714.22;;;25.53;34.26
50057;BME280;36875;49.468;11.200;2023-12-14T11:55:21;97710.22;;;25.50;34.17
50057;BME280;36875;49.468;11.200;2023-12-14T11:57:47;97700.41;;;25.37;34.23
50057;BME280;36875;49.468;11.200;2023-12-14T12:00:14;97720.53;;;25.53;34.21
50057;BME280;36875;49.468;11.200;2023-12-14T12:02:43;97720.44;;;25.66;33.69
50057;BME280;36875;49.468;11.200;2023-12-14T12:05:08;97718.81;;;25.49;33.77
50057;BME280;36875;49.468;11.200;2023-12-14T12:07:38;97719.81;;;25.56;34.02
50057;BME280;36875;49.468;11.200;2023-12-14T12:10:05;97715.97;;;25.45;33.72
50057;BME280;36875;49.468;11.200;2023-12-14T12:12:32;97716.94;;;25.37;34.09
50057;BME280;36875;49.468;11.200;2023-12-14T12:14:58;97725.47;;;25.32;33.79
50057;BME280;36875;49.468;11.200;2023-12-14T12:17:23;97724.91;;;25.14;34.65
50057;BME280;36875;49.468;11.200;2023-12-14T12:19:50;97726.44;;;25.11;34.33
50057;BME280;36875;49.468;11.200;2023-12-14T12:22:16;97722.16;;;25.26;34.21
50057;BME280;36875;49.468;11.200;2023-12-14T12:24:41;97724.81;;;25.10;34.42
50057;BME280;36875;49.468;11.200;2023-12-14T12:27:07;97724.81;;;25.10;34.66
50057;BME280;36875;49.468;11.200;2023-12-14T12:29:34;97729.44;;;25.06;34.29
50057;BME280;36875;49.468;11.200;2023-12-14T12:31:59;97737.16;;;24.88;34.72
50057;BME280;36875;49.468;11.200;2023-12-14T12:34:25;97739.34;;;24.82;34.64
50057;BME280;36875;49.468;11.200;2023-12-14T12:36:52;97738.00;;;24.76;34.84
50057;BME280;36875;49.468;11.200;2023-12-14T12:39:17;97732.00;;;24.87;34.81
50057;BME280;36875;49.468;11.200;2023-12-14T12:41:43;97730.19;;;24.91;34.78
50057;BME280;36875;49.468;11.200;2023-12-14T12:44:08;97729.63;;;24.85;34.23
50057;BME280;36875;49.468;11.200;2023-12-14T12:46:35;97731.94;;;24.71;34.83
50057;BME280;36875;49.468;11.200;2023-12-14T12:49:01;97736.38;;;24.75;35.03